sensor_id;sensor_type;location;lat;lon;timestamp;pressure;altitude;pressure_sealevel;temperature;humidity
7748;BME280;3918;42.564;23.164;2023-08-06T04:02:54;-11650.84;;;-142.29;100.00
7748;BME280;3918;42.564;23.164;2023-08-06T04:05:21;-11650.84;;;-142.29;100.00
7748;BME280;3918;42.564;23.164;2023-08-06T04:07:47;-11650.84;;;-142.29;100.00
7748;BME280;3918;42.564;23.164;2023-08-06T04:10:14;-11650.84;;;-142.29;100.00
7748;BME280;3918;42.564;23.164;2023-08-06T04:12:41;-11650.84;;;-142.29;100.00
7748;BME280;3918;42.564;23.164;2023-08-06T04:15:08;-11650.84;;;-142.29;100.00
7748;BME280;3918;42.564;23.164;2023-08-06T04:17:35;-11650.84;;;-142.29;100.00
7748;BME280;3918;42.564;23.164;2023-08-06T04:20:04;-11650.84;;;-142.29;100.00
7748;BME280;3918;42.564;23.164;2023-08-06T04:22:31;-11650.84;;;-142.29;100.00
7748;BME280;3918;42.564;23.164;2023-08-06T04:24:58;-11650.84;;;-142.29;100.00
7748;BME280;3918;42.564;23.164;2023-08-06T04:27:25;-11650.84;;;-142.29;100.00
7748;BME280;3918;42.564;23.164;2023-08-06T04:29:51;-11650.84;;;-142.29;100.00
7748;BME280;3918;42.564;23.164;2023-08-06T04:32:18;-11650.84;;;-142.29;100.00
7748;BME280;3918;42.564;23.164;2023-08-06T04:34:45;-11650.84;;;-142.29;100.00
7748;BME280;3918;42.564;23.164;2023-08-06T04:37:14;-11650.84;;;-142.29;100.00
7748;BME280;3918;42.564;23.164;2023-08-06T04:39:41;-11650.84;;;-142.29;100.00
7748;BME280;3918;42.564;23.164;2023-08-06T04:42:08;-11650.84;;;-142.29;100.00
7748;BME280;3918;42.564;23.164;2023-08-06T04:44:35;-11650.84;;;-142.29;100.00
7748;BME280;3918;42.564;23.164;2023-08-06T04:47:01;-11650.84;;;-142.29;100.00
7748;BME280;3918;42.564;23.164;2023-08-06T04:49:28;-11650.84;;;-142.29;100.00
7748;BME280;3918;42.564;23.164;2023-08-06T04:51:55;-11650.84;;;-142.29;100.00
7748;BME280;3918;42.564;23.164;2023-08-06T04:54:23;-11650.84;;;-142.29;100.00
7748;BME280;3918;42.564;23.164;2023-08-06T04:56:50;-11650.84;;;-142.29;100.00
7748;BME280;3918;42.564;23.164;2023-08-06T04:59:16;-11650.84;;;-142.29;100.00
7748;BME280;3918;42.564;23.164;2023-08-06T05:01:43;-11650.84;;;-142.29;100.00
7748;BME280;3918;42.564;23.164;2023-08-06T05:04:10;-11650.84;;;-142.29;100.00
7748;BME280;3918;42.564;23.164;2023-08-06T05:06:37;-11650.84;;;-142.29;100.00
7748;BME280;3918;42.564;23.164;2023-08-06T05:09:05;-11650.84;;;-142.29;100.00
7748;BME280;3918;42.564;23.164;2023-08-06T05:11:33;-11650.84;;;-142.29;100.00
7748;BME280;3918;42.564;23.164;2023-08-06T05:14:00;-11650.84;;;-142.29;100.00
7748;BME280;3918;42.564;23.164;2023-08-06T05:16:27;-11650.84;;;-142.29;100.00
7748;BME280;3918;42.564;23.164;2023-08-06T05:18:54;-11650.84;;;-142.29;100.00
7748;BME280;3918;42.564;23.164;2023-08-06T05:21:20;-11650.84;;;-142.29;100.00
7748;BME280;3918;42.564;23.164;2023-08-06T05:23:47;-11650.84;;;-142.29;100.00
7748;BME280;3918;42.564;23.164;2023-08-06T05:26:14;-11650.84;;;-142.29;100.00
7748;BME280;3918;42.564;23.164;2023-08-06T05:28:45;-11650.84;;;-142.29;100.00
7748;BME280;3918;42.564;23.164;2023-08-06T05:31:12;-11650.84;;;-142.29;100.00
7748;BME280;3918;42.564;23.164;2023-08-06T05:33:40;-11650.84;;;-142.29;100.00
7748;BME280;3918;42.564;23.164;2023-08-06T05:36:07;-11650.84;;;-142.29;100.00
7748;BME280;3918;42.564;23.164;2023-08-06T05:38:34;-11650.84;;;-142.29;100.00
7748;BME280;3918;42.564;23.164;2023-08-06T05:41:00;-11650.84;;;-142.29;100.00
7748;BME280;3918;42.564;23.164;2023-08-06T05:43:27;-11650.84;;;-142.29;100.00
7748;BME280;3918;42.564;23.164;2023-08-06T05:45:55;-11650.84;;;-142.29;100.00
7748;BME280;3918;42.564;23.164;2023-08-06T05:48:22;-11650.84;;;-142.29;100.00
7748;BME280;3918;42.564;23.164;2023-08-06T05:50:50;-11650.84;;;-142.29;100.00
7748;BME280;3918;42.564;23.164;2023-08-06T05:53:17;-11650.84;;;-142.29;100.00
7748;BME280;3918;42.564;23.164;2023-08-06T05:55:44;-11650.84;;;-142.29;100.00
7748;BME280;3918;42.564;23.164;2023-08-06T05:58:11;-11650.84;;;-142.29;100.00
7748;BME280;3918;42.564;23.164;2023-08-06T06:00:38;-11650.84;;;-142.29;100.00
7748;BME280;3918;42.564;23.164;2023-08-06T06:03:06;-11650.84;;;-142.29;100.00
7748;BME280;3918;42.564;23.164;2023-08-06T06:05:33;-11650.84;;;-142.29;100.00
7748;BME280;3918;42.564;23.164;2023-08-06T06:07:59;-11650.84;;;-142.29;100.00
7748;BME280;3918;42.564;23.164;2023-08-06T06:10:26;-11650.84;;;-142.29;100.00
7748;BME280;3918;42.564;23.164;2023-08-06T06:12:53;-11650.84;;;-142.29;100.00
7748;BME280;3918;42.564;23.164;2023-08-06T06:15:20;-11650.84;;;-142.29;100.00
7748;BME280;3918;42.564;23.164;2023-08-06T06:17:46;-11650.84;;;-142.29;100.00
7748;BME280;3918;42.564;23.164;2023-08-06T06:20:15;-11650.84;;;-142.29;100.00
7748;BME280;3918;42.564;23.164;2023-08-06T06:22:41;-11650.84;;;-142.29;100.00
7748;BME280;3918;42.564;23.164;2023-08-06T06:25:08;-11650.84;;;-142.29;100.00
7748;BME280;3918;42.564;23.164;2023-08-06T06:27:36;-11650.84;;;-142.29;100.00
7748;BME280;3918;42.564;23.164;2023-08-06T06:30:03;-11650.84;;;-142.29;100.00
7748;BME280;3918;42.564;23.164;2023-08-06T06:32:30;-11650.84;;;-142.29;100.00
7748;BME280;3918;42.564;23.164;2023-08-06T06:34:57;-11650.84;;;-142.29;100.00
7748;BME280;3918;42.564;23.164;2023-08-06T06:37:25;-11650.84;;;-142.29;100.00
7748;BME280;3918;42.564;23.164;2023-08-06T06:39:52;-11650.84;;;-142.29;100.00
7748;BME280;3918;42.564;23.164;2023-08-06T06:42:19;-11650.84;;;-142.29;100.00
7748;BME280;3918;42.564;23.164;2023-08-06T06:44:46;-11650.84;;;-142.29;100.00
7748;BME280;3918;42.564;23.164;2023-08-06T06:47:12;-11650.84;;;-142.29;100.00
7748;BME280;3918;42.564;23.164;2023-08-06T06:49:39;-11650.84;;;-142.29;100.00
7748;BME280;3918;42.564;23.164;2023-08-06T06:52:06;-11650.84;;;-142.29;100.00
7748;BME280;3918;42.564;23.164;2023-08-06T06:54:34;-11650.84;;;-142.29;100.00
7748;BME280;3918;42.564;23.164;2023-08-06T06:57:01;-11650.84;;;-142.29;100.00
7748;BME280;3918;42.564;23.164;2023-08-06T06:59:28;-11650.84;;;-142.29;100.00
7748;BME280;3918;42.564;23.164;2023-08-06T07:01:55;-11650.84;;;-142.29;100.00
7748;BME280;3918;42.564;23.164;2023-08-06T07:04:22;-11650.84;;;-142.29;100.00
7748;BME280;3918;42.564;23.164;2023-08-06T07:06:48;-11650.84;;;-142.29;100.00
7748;BME280;3918;42.564;23.164;2023-08-06T07:09:17;-11650.84;;;-142.29;100.00
7748;BME280;3918;42.564;23.164;2023-08-06T07:11:45;-11650.84;;;-142.29;100.00
7748;BME280;3918;42.564;23.164;2023-08-06T07:14:12;-11650.84;;;-142.29;100.00
7748;BME280;3918;42.564;23.164;2023-08-06T07:16:39;-11650.84;;;-142.29;100.00
7748;BME280;3918;42.564;23.164;2023-08-06T07:19:06;-11650.84;;;-142.29;100.00
7748;BME280;3918;42.564;23.164;2023-08-06T07:21:33;-11650.84;;;-142.29;100.00
7748;BME280;3918;42.564;23.164;2023-08-06T07:24:00;-11650.84;;;-142.29;100.00
7748;BME280;3918;42.564;23.164;2023-08-06T07:26:27;-11650.84;;;-142.29;100.00
7748;BME280;3918;42.564;23.164;2023-08-06T07:28:55;-11650.84;;;-142.29;100.00
7748;BME280;3918;42.564;23.164;2023-08-06T07:31:21;-11650.84;;;-142.29;100.00
7748;BME280;3918;42.564;23.164;2023-08-06T07:33:48;-11650.84;;;-142.29;100.00
7748;BME280;3918;42.564;23.164;2023-08-06T07:36:15;18635.97;;;-142.29;100.00
7748;BME280;3918;42.564;23.164;2023-08-06T07:38:42;46180.19;;;-142.29;100.00
7748;BME280;3918;42.564;23.164;2023-08-06T07:41:09;-11650.84;;;-142.29;98.63
7748;BME280;3918;42.564;23.164;2023-08-06T07:43:35;-11650.84;;;-142.29;81.02
7748;BME280;3918;42.564;23.164;2023-08-06T07:46:04;-11650.84;;;-142.29;70.12
7748;BME280;3918;42.564;23.164;2023-08-06T07:48:30;-11650.84;;;-142.29;68.43
7748;BME280;3918;42.564;23.164;2023-08-06T07:50:57;-11650.84;;;-142.29;64.65
7748;BME280;3918;42.564;23.164;2023-08-06T07:53:25;-11650.84;;;-142.29;58.22
7748;BME280;3918;42.564;23.164;2023-08-06T07:55:54;-11650.84;;;-142.29;60.53
7748;BME280;3918;42.564;23.164;2023-08-06T07:58:22;-11650.84;;;-142.29;60.49
7748;BME280;3918;42.564;23.164;2023-08-06T08:00:49;-11650.84;;;-142.29;64.32
7748;BME280;3918;42.564;23.164;2023-08-06T08:03:17;-11650.84;;;-142.29;69.38
7748;BME280;3918;42.564;23.164;2023-08-06T08:05:45;-11650.84;;;-142.29;70.61
7748;BME280;3918;42.564;23.164;2023-08-06T08:08:12;-11650.84;;;-142.29;70.33
7748;BME280;3918;42.564;23.164;2023-08-06T08:10:38;-11650.84;;;-142.29;66.45
7748;BME280;3918;42.564;23.164;2023-08-06T08:13:05;-11650.84;;;-142.29;61.26
7748;BME280;3918;42.564;23.164;2023-08-06T08:15:33;-11650.84;;;-142.29;60.10
7748;BME280;3918;42.564;23.164;2023-08-06T08:18:00;-11650.84;;;-142.29;53.89
7748;BME280;3918;42.564;23.164;2023-08-06T08:20:28;-11650.84;;;-142.29;56.63
7748;BME280;3918;42.564;23.164;2023-08-06T08:22:58;-11650.84;;;-142.29;62.39
7748;BME280;3918;42.564;23.164;2023-08-06T08:25:26;-11650.84;;;-142.29;60.87
7748;BME280;3918;42.564;23.164;2023-08-06T08:27:53;-11650.84;;;-142.29;57.59
7748;BME280;3918;42.564;23.164;2023-08-06T08:30:20;-11650.84;;;-142.29;57.19
7748;BME280;3918;42.564;23.164;2023-08-06T08:32:47;-11650.84;;;-142.29;59.69
7748;BME280;3918;42.564;23.164;2023-08-06T08:35:14;-11650.84;;;-142.29;60.11
7748;BME280;3918;42.564;23.164;2023-08-06T08:37:42;-11650.84;;;-142.29;63.66
7748;BME280;3918;42.564;23.164;2023-08-06T08:40:09;-11650.84;;;-142.29;67.17
7748;BME280;3918;42.564;23.164;2023-08-06T08:42:37;-11650.84;;;-142.29;71.16
7748;BME280;3918;42.564;23.164;2023-08-06T08:45:05;-11650.84;;;-142.29;62.76
7748;BME280;3918;42.564;23.164;2023-08-06T08:47:33;-11650.84;;;-142.29;56.27
7748;BME280;3918;42.564;23.164;2023-08-06T08:50:00;-11650.84;;;-142.29;56.08
7748;BME280;3918;42.564;23.164;2023-08-06T08:52:28;-11650.84;;;-142.29;62.64
7748;BME280;3918;42.564;23.164;2023-08-06T08:54:59;-11650.84;;;-142.29;53.92
7748;BME280;3918;42.564;23.164;2023-08-06T08:57:27;-11650.84;;;-142.29;51.54
7748;BME280;3918;42.564;23.164;2023-08-06T08:59:54;-11650.84;;;-142.29;50.39
7748;BME280;3918;42.564;23.164;2023-08-06T09:02:22;-11650.84;;;-142.29;47.72
7748;BME280;3918;42.564;23.164;2023-08-06T09:04:51;-11650.84;;;-142.29;52.18
7748;BME280;3918;42.564;23.164;2023-08-06T09:07:19;-11650.84;;;-142.29;51.60
7748;BME280;3918;42.564;23.164;2023-08-06T09:09:49;-11650.84;;;-142.29;54.44
7748;BME280;3918;42.564;23.164;2023-08-06T09:12:17;-11650.84;;;-142.29;56.22
7748;BME280;3918;42.564;23.164;2023-08-06T09:14:44;-11650.84;;;-142.29;55.49
7748;BME280;3918;42.564;23.164;2023-08-06T09:17:11;-11650.84;;;-142.29;58.35
7748;BME280;3918;42.564;23.164;2023-08-06T09:19:41;-11650.84;;;-142.29;62.24
7748;BME280;3918;42.564;23.164;2023-08-06T09:22:11;-11650.84;;;-142.29;62.42
7748;BME280;3918;42.564;23.164;2023-08-06T09:24:39;-11650.84;;;-142.29;66.25
7748;BME280;3918;42.564;23.164;2023-08-06T09:27:10;-11650.84;;;-142.29;70.36
7748;BME280;3918;42.564;23.164;2023-08-06T09:29:41;-11650.84;;;-142.29;68.95
7748;BME280;3918;42.564;23.164;2023-08-06T09:32:10;-11650.84;;;-142.29;70.09
7748;BME280;3918;42.564;23.164;2023-08-06T09:34:39;-11650.84;;;-142.29;69.43
7748;BME280;3918;42.564;23.164;2023-08-06T09:37:08;-11650.84;;;-142.29;72.84
7748;BME280;3918;42.564;23.164;2023-08-06T09:39:35;-11650.84;;;-142.29;75.46
7748;BME280;3918;42.564;23.164;2023-08-06T09:42:03;-11650.84;;;-142.29;78.44
7748;BME280;3918;42.564;23.164;2023-08-06T09:44:31;-11650.84;;;-142.29;74.79
7748;BME280;3918;42.564;23.164;2023-08-06T09:47:00;-11650.84;;;-142.29;76.15
7748;BME280;3918;42.564;23.164;2023-08-06T09:49:28;-11650.84;;;-142.29;73.65
7748;BME280;3918;42.564;23.164;2023-08-06T09:51:55;-11650.84;;;-142.29;74.36
7748;BME280;3918;42.564;23.164;2023-08-06T09:54:24;-11650.84;;;-142.29;72.43
7748;BME280;3918;42.564;23.164;2023-08-06T09:56:52;-11650.84;;;-142.29;68.79
7748;BME280;3918;42.564;23.164;2023-08-06T09:59:19;-11650.84;;;-142.29;73.27
7748;BME280;3918;42.564;23.164;2023-08-06T10:01:46;-11650.84;;;-142.29;74.81
7748;BME280;3918;42.564;23.164;2023-08-06T10:04:15;-11650.84;;;-142.29;77.00
7748;BME280;3918;42.564;23.164;2023-08-06T10:06:46;-11650.84;;;-142.29;76.92
7748;BME280;3918;42.564;23.164;2023-08-06T10:09:14;-11650.84;;;-142.29;73.10
7748;BME280;3918;42.564;23.164;2023-08-06T10:11:42;-11650.84;;;-142.29;77.70
7748;BME280;3918;42.564;23.164;2023-08-06T10:14:12;-11650.84;;;-142.29;81.15
7748;BME280;3918;42.564;23.164;2023-08-06T10:16:41;-11650.84;;;-142.29;84.41
7748;BME280;3918;42.564;23.164;2023-08-06T10:19:10;-11650.84;;;-142.29;87.89
7748;BME280;3918;42.564;23.164;2023-08-06T10:21:39;-11650.84;;;-142.29;84.65
7748;BME280;3918;42.564;23.164;2023-08-06T10:24:07;-11650.84;;;-142.29;82.09
7748;BME280;3918;42.564;23.164;2023-08-06T10:26:36;-11650.84;;;-142.29;77.25
7748;BME280;3918;42.564;23.164;2023-08-06T10:29:36;-11650.84;;;-142.29;83.74
7748;BME280;3918;42.564;23.164;2023-08-06T10:32:04;-11650.84;;;-142.29;83.33
7748;BME280;3918;42.564;23.164;2023-08-06T10:34:55;-11650.84;;;-142.29;86.51
7748;BME280;3918;42.564;23.164;2023-08-06T10:37:25;-11650.84;;;-142.29;87.62
7748;BME280;3918;42.564;23.164;2023-08-06T10:40:01;-11650.84;;;-142.29;91.58
7748;BME280;3918;42.564;23.164;2023-08-06T10:42:29;-11650.84;;;-142.29;92.11
7748;BME280;3918;42.564;23.164;2023-08-06T10:45:12;-11650.84;;;-142.29;94.63
7748;BME280;3918;42.564;23.164;2023-08-06T10:47:40;-11650.84;;;-142.29;97.30
7748;BME280;3918;42.564;23.164;2023-08-06T10:50:10;-11650.84;;;-142.29;100.00
7748;BME280;3918;42.564;23.164;2023-08-06T10:52:38;-11650.84;;;-142.29;100.00
7748;BME280;3918;42.564;23.164;2023-08-06T10:55:06;-11650.84;;;-142.29;100.00
7748;BME280;3918;42.564;23.164;2023-08-06T10:57:33;-11650.84;;;-142.29;100.00
7748;BME280;3918;42.564;23.164;2023-08-06T10:59:59;-11650.84;;;-142.29;100.00
7748;BME280;3918;42.564;23.164;2023-08-06T11:02:26;-11650.84;;;-142.29;100.00
7748;BME280;3918;42.564;23.164;2023-08-06T11:04:53;-11650.84;;;-142.29;93.47
7748;BME280;3918;42.564;23.164;2023-08-06T11:07:20;-11650.84;;;-142.29;91.58
7748;BME280;3918;42.564;23.164;2023-08-06T11:09:51;-11650.84;;;-142.29;95.14
7748;BME280;3918;42.564;23.164;2023-08-06T11:12:19;-11650.84;;;-142.29;87.04
7748;BME280;3918;42.564;23.164;2023-08-06T11:14:50;-11650.84;;;-142.29;86.08
7748;BME280;3918;42.564;23.164;2023-08-06T11:17:17;-11650.84;;;-142.29;86.26
7748;BME280;3918;42.564;23.164;2023-08-06T11:19:44;-11650.84;;;-142.29;84.19
7748;BME280;3918;42.564;23.164;2023-08-06T11:22:11;-11650.84;;;-142.29;84.53
7748;BME280;3918;42.564;23.164;2023-08-06T11:24:38;-11650.84;;;-142.29;80.10
7748;BME280;3918;42.564;23.164;2023-08-06T11:27:12;-11650.84;;;-142.29;79.01
7748;BME280;3918;42.564;23.164;2023-08-06T11:29:40;-11650.84;;;-142.29;79.76
7748;BME280;3918;42.564;23.164;2023-08-06T11:32:07;-11650.84;;;-142.29;79.63
7748;BME280;3918;42.564;23.164;2023-08-06T11:34:34;-11650.84;;;-142.29;84.19
7748;BME280;3918;42.564;23.164;2023-08-06T11:37:02;-11650.84;;;-142.29;82.18
7748;BME280;3918;42.564;23.164;2023-08-06T11:39:30;-11650.84;;;-142.29;80.39
7748;BME280;3918;42.564;23.164;2023-08-06T11:41:57;-11650.84;;;-142.29;78.61
7748;BME280;3918;42.564;23.164;2023-08-06T11:44:29;-11650.84;;;-142.29;78.02
7748;BME280;3918;42.564;23.164;2023-08-06T11:46:57;-11650.84;;;-142.29;75.53
7748;BME280;3918;42.564;23.164;2023-08-06T11:49:40;-11650.84;;;-142.29;74.98
7748;BME280;3918;42.564;23.164;2023-08-06T11:52:19;-11650.84;;;-142.29;73.47
7748;BME280;3918;42.564;23.164;2023-08-06T11:54:47;-11650.84;;;-142.29;75.71
7748;BME280;3918;42.564;23.164;2023-08-06T11:57:15;-11650.84;;;-142.29;71.08
7748;BME280;3918;42.564;23.164;2023-08-06T11:59:45;-11650.84;;;-142.29;70.91
7748;BME280;3918;42.564;23.164;2023-08-06T12:02:11;-11650.84;;;-142.29;73.04
7748;BME280;3918;42.564;23.164;2023-08-06T12:04:57;-11650.84;;;-142.29;74.79
7748;BME280;3918;42.564;23.164;2023-08-06T12:07:26;-11650.84;;;-142.29;72.25
7748;BME280;3918;42.564;23.164;2023-08-06T12:09:53;-11650.84;;;-142.29;72.30
7748;BME280;3918;42.564;23.164;2023-08-06T12:12:20;-11650.84;;;-142.29;70.15
7748;BME280;3918;42.564;23.164;2023-08-06T12:14:48;-11650.84;;;-142.29;73.00
7748;BME280;3918;42.564;23.164;2023-08-06T12:17:15;-11650.84;;;-142.29;69.89
7748;BME280;3918;42.564;23.164;2023-08-06T12:19:44;-11650.84;;;-142.29;74.38
7748;BME280;3918;42.564;23.164;2023-08-06T12:22:11;-11650.84;;;-142.29;71.62
7748;BME280;3918;42.564;23.164;2023-08-06T12:34:22;-11650.84;;;-142.29;71.04
7748;BME280;3918;42.564;23.164;2023-08-06T12:36:49;-11650.84;;;-142.29;69.02
7748;BME280;3918;42.564;23.164;2023-08-06T12:39:16;-11650.84;;;-142.29;70.55
7748;BME280;3918;42.564;23.164;2023-08-06T12:41:43;-11650.84;;;-142.29;68.89
7748;BME280;3918;42.564;23.164;2023-08-06T12:44:11;-11650.84;;;-142.29;68.92
7748;BME280;3918;42.564;23.164;2023-08-06T12:46:39;-11650.84;;;-142.29;69.15
7748;BME280;3918;42.564;23.164;2023-08-06T12:49:06;-11650.84;;;-142.29;68.34
7748;BME280;3918;42.564;23.164;2023-08-06T12:51:33;-11650.84;;;-142.29;70.19
7748;BME280;3918;42.564;23.164;2023-08-06T12:54:00;-11650.84;;;-142.29;67.95
7748;BME280;3918;42.564;23.164;2023-08-06T12:56:27;-11650.84;;;-142.29;68.83
7748;BME280;3918;42.564;23.164;2023-08-06T12:58:54;-11650.84;;;-142.29;67.58
7748;BME280;3918;42.564;23.164;2023-08-06T13:01:21;-11650.84;;;-142.29;69.56
7748;BME280;3918;42.564;23.164;2023-08-06T13:03:49;-11650.84;;;-142.29;65.48
7748;BME280;3918;42.564;23.164;2023-08-06T13:06:16;-11650.84;;;-142.29;64.21
7748;BME280;3918;42.564;23.164;2023-08-06T13:08:43;-11650.84;;;-142.29;63.12
7748;BME280;3918;42.564;23.164;2023-08-06T13:11:10;-11650.84;;;-142.29;61.55
7748;BME280;3918;42.564;23.164;2023-08-06T13:13:36;-11650.84;;;-142.29;61.67
7748;BME280;3918;42.564;23.164;2023-08-06T13:16:03;-11650.84;;;-142.29;63.48
7748;BME280;3918;42.564;23.164;2023-08-06T13:18:30;-11650.84;;;-142.29;65.24
7748;BME280;3918;42.564;23.164;2023-08-06T13:20:59;-11650.84;;;-142.29;65.32
7748;BME280;3918;42.564;23.164;2023-08-06T13:23:26;-11650.84;;;-142.29;65.75
7748;BME280;3918;42.564;23.164;2023-08-06T13:25:53;-11650.84;;;-142.29;65.50
7748;BME280;3918;42.564;23.164;2023-08-06T13:28:20;-11650.84;;;-142.29;65.84
7748;BME280;3918;42.564;23.164;2023-08-06T13:30:47;-11650.84;;;-142.29;66.13
7748;BME280;3918;42.564;23.164;2023-08-06T13:33:14;-11650.84;;;-142.29;64.94
7748;BME280;3918;42.564;23.164;2023-08-06T13:35:41;-11650.84;;;-142.29;65.49
7748;BME280;3918;42.564;23.164;2023-08-06T13:38:09;-11650.84;;;-142.29;66.36
7748;BME280;3918;42.564;23.164;2023-08-06T13:40:36;-11650.84;;;-142.29;65.84
7748;BME280;3918;42.564;23.164;2023-08-06T14:36:39;-11650.84;;;-142.29;67.07
7748;BME280;3918;42.564;23.164;2023-08-06T14:39:06;-11650.84;;;-142.29;67.87
7748;BME280;3918;42.564;23.164;2023-08-06T14:41:33;-11650.84;;;-142.29;69.92
7748;BME280;3918;42.564;23.164;2023-08-06T14:44:00;-11650.84;;;-142.29;67.14
7748;BME280;3918;42.564;23.164;2023-08-06T14:46:27;-11650.84;;;-142.29;68.24
7748;BME280;3918;42.564;23.164;2023-08-06T14:48:53;-11650.84;;;-142.29;69.42
7748;BME280;3918;42.564;23.164;2023-08-06T14:51:20;-11650.84;;;-142.29;68.45
7748;BME280;3918;42.564;23.164;2023-08-06T14:53:49;-11650.84;;;-142.29;70.39
7748;BME280;3918;42.564;23.164;2023-08-06T14:56:16;-11650.84;;;-142.29;65.98
7748;BME280;3918;42.564;23.164;2023-08-06T14:58:42;-11650.84;;;-142.29;65.05
7748;BME280;3918;42.564;23.164;2023-08-06T15:01:09;-11650.84;;;-142.29;63.91
7748;BME280;3918;42.564;23.164;2023-08-06T15:03:36;-11650.84;;;-142.29;65.01
7748;BME280;3918;42.564;23.164;2023-08-06T15:06:03;-11650.84;;;-142.29;63.68
7748;BME280;3918;42.564;23.164;2023-08-06T15:08:30;-11650.84;;;-142.29;61.07
7748;BME280;3918;42.564;23.164;2023-08-06T15:10:58;-11650.84;;;-142.29;60.19
7748;BME280;3918;42.564;23.164;2023-08-06T15:13:27;-11650.84;;;-142.29;58.52
7748;BME280;3918;42.564;23.164;2023-08-06T15:15:54;-11650.84;;;-142.29;58.71
7748;BME280;3918;42.564;23.164;2023-08-06T15:18:20;-11650.84;;;-142.29;59.74
7748;BME280;3918;42.564;23.164;2023-08-06T15:20:47;-11650.84;;;-142.29;57.22
7748;BME280;3918;42.564;23.164;2023-08-06T15:23:14;-11650.84;;;-142.29;57.84
7748;BME280;3918;42.564;23.164;2023-08-06T15:25:41;-11650.84;;;-142.29;58.77
7748;BME280;3918;42.564;23.164;2023-08-06T15:28:09;-11650.84;;;-142.29;59.59
7748;BME280;3918;42.564;23.164;2023-08-06T15:30:36;-11650.84;;;-142.29;58.41
7748;BME280;3918;42.564;23.164;2023-08-06T15:33:03;-11650.84;;;-142.29;60.09
7748;BME280;3918;42.564;23.164;2023-08-06T15:35:30;-11650.84;;;-142.29;59.65
7748;BME280;3918;42.564;23.164;2023-08-06T15:37:57;-11650.84;;;-142.29;60.24
7748;BME280;3918;42.564;23.164;2023-08-06T15:40:23;-11650.84;;;-142.29;59.61
7748;BME280;3918;42.564;23.164;2023-08-06T15:42:50;-11650.84;;;-142.29;59.10
7748;BME280;3918;42.564;23.164;2023-08-06T15:45:18;-11650.84;;;-142.29;60.26
7748;BME280;3918;42.564;23.164;2023-08-06T15:47:45;-11650.84;;;-142.29;60.34
7748;BME280;3918;42.564;23.164;2023-08-06T15:50:12;-11650.84;;;-142.29;60.58
7748;BME280;3918;42.564;23.164;2023-08-06T15:52:39;-11650.84;;;-142.29;61.42
7748;BME280;3918;42.564;23.164;2023-08-06T15:55:06;-11650.84;;;-142.29;61.18
7748;BME280;3918;42.564;23.164;2023-08-06T15:57:34;-11650.84;;;-142.29;62.48
7748;BME280;3918;42.564;23.164;2023-08-06T16:00:02;-11650.84;;;-142.29;61.50
7748;BME280;3918;42.564;23.164;2023-08-06T16:02:30;-11650.84;;;-142.29;61.63
7748;BME280;3918;42.564;23.164;2023-08-06T16:04:58;-11650.84;;;-142.29;61.64
7748;BME280;3918;42.564;23.164;2023-08-06T16:07:25;-11650.84;;;-142.29;62.28
7748;BME280;3918;42.564;23.164;2023-08-06T16:09:53;-11650.84;;;-142.29;62.26
7748;BME280;3918;42.564;23.164;2023-08-06T16:12:20;-11650.84;;;-142.29;62.09
7748;BME280;3918;42.564;23.164;2023-08-06T16:14:47;-11650.84;;;-142.29;63.40
7748;BME280;3918;42.564;23.164;2023-08-06T16:17:14;-11650.84;;;-142.29;62.83
7748;BME280;3918;42.564;23.164;2023-08-06T16:19:42;-11650.84;;;-142.29;63.38
7748;BME280;3918;42.564;23.164;2023-08-06T16:22:09;-11650.84;;;-142.29;63.94
7748;BME280;3918;42.564;23.164;2023-08-06T16:24:36;-11650.84;;;-142.29;63.44
7748;BME280;3918;42.564;23.164;2023-08-06T16:27:04;-11650.84;;;-142.29;64.39
7748;BME280;3918;42.564;23.164;2023-08-06T16:29:30;-11650.84;;;-142.29;65.00
7748;BME280;3918;42.564;23.164;2023-08-06T16:31:57;-11650.84;;;-142.29;65.39
7748;BME280;3918;42.564;23.164;2023-08-06T16:34:25;-11650.84;;;-142.29;66.19
7748;BME280;3918;42.564;23.164;2023-08-06T16:36:53;-11650.84;;;-142.29;66.72
7748;BME280;3918;42.564;23.164;2023-08-06T16:39:20;-11650.84;;;-142.29;66.19
7748;BME280;3918;42.564;23.164;2023-08-06T16:41:48;-11650.84;;;-142.29;67.30
7748;BME280;3918;42.564;23.164;2023-08-06T16:44:15;-11650.84;;;-142.29;67.52
7748;BME280;3918;42.564;23.164;2023-08-06T16:46:42;-11650.84;;;-142.29;67.69
7748;BME280;3918;42.564;23.164;2023-08-06T16:49:11;-11650.84;;;-142.29;67.78
7748;BME280;3918;42.564;23.164;2023-08-06T16:51:37;-11650.84;;;-142.29;67.93
7748;BME280;3918;42.564;23.164;2023-08-06T16:54:05;-11650.84;;;-142.29;68.78
7748;BME280;3918;42.564;23.164;2023-08-06T16:56:32;-11650.84;;;-142.29;68.68
7748;BME280;3918;42.564;23.164;2023-08-06T16:59:00;-11650.84;;;-142.29;68.78
7748;BME280;3918;42.564;23.164;2023-08-06T17:01:26;-11650.84;;;-142.29;69.74
7748;BME280;3918;42.564;23.164;2023-08-06T17:03:53;-11650.84;;;-142.29;69.77
7748;BME280;3918;42.564;23.164;2023-08-06T17:06:20;-11650.84;;;-142.29;70.85
7748;BME280;3918;42.564;23.164;2023-08-06T17:08:47;-11650.84;;;-142.29;70.85
7748;BME280;3918;42.564;23.164;2023-08-06T17:11:16;-11650.84;;;-142.29;72.24
7748;BME280;3918;42.564;23.164;2023-08-06T17:13:42;-11650.84;;;-142.29;72.81
7748;BME280;3918;42.564;23.164;2023-08-06T17:16:09;-11650.84;;;-142.29;72.34
7748;BME280;3918;42.564;23.164;2023-08-06T17:18:37;-11650.84;;;-142.29;72.84
7748;BME280;3918;42.564;23.164;2023-08-06T17:21:05;-11650.84;;;-142.29;73.03
7748;BME280;3918;42.564;23.164;2023-08-06T17:23:31;-11650.84;;;-142.29;73.52
7748;BME280;3918;42.564;23.164;2023-08-06T17:25:58;-11650.84;;;-142.29;74.16
7748;BME280;3918;42.564;23.164;2023-08-06T17:28:26;-11650.84;;;-142.29;74.36
7748;BME280;3918;42.564;23.164;2023-08-06T17:30:53;-11650.84;;;-142.29;74.88
7748;BME280;3918;42.564;23.164;2023-08-06T17:33:20;-11650.84;;;-142.29;75.46
7748;BME280;3918;42.564;23.164;2023-08-06T17:35:47;-11650.84;;;-142.29;76.19
7748;BME280;3918;42.564;23.164;2023-08-06T17:38:15;-11650.84;;;-142.29;76.92
7748;BME280;3918;42.564;23.164;2023-08-06T17:40:42;-11650.84;;;-142.29;77.63
7748;BME280;3918;42.564;23.164;2023-08-06T17:43:09;-11650.84;;;-142.29;78.34
7748;BME280;3918;42.564;23.164;2023-08-06T17:45:38;-11650.84;;;-142.29;79.20